sensor_id;sensor_type;location;lat;lon;timestamp;P1;durP1;ratioP1;P2;durP2;ratioP2
50605;SDS011;36557;53.572;10.170;2023-03-01T00:02:19;11.98;;;6.07;;
50605;SDS011;36557;53.572;10.170;2023-03-01T00:04:46;10.75;;;6.18;;
50605;SDS011;36557;53.572;10.170;2023-03-01T00:07:11;12.40;;;7.32;;
50605;SDS011;36557;53.572;10.170;2023-03-01T00:09:37;11.32;;;6.32;;
50605;SDS011;36557;53.572;10.170;2023-03-01T00:12:04;12.10;;;6.07;;
50605;SDS011;36557;53.572;10.170;2023-03-01T00:14:31;13.40;;;6.15;;
50605;SDS011;36557;53.572;10.170;2023-03-01T00:16:56;13.77;;;5.70;;
50605;SDS011;36557;53.572;10.170;2023-03-01T00:19:22;11.25;;;6.07;;
50605;SDS011;36557;53.572;10.170;2023-03-01T00:21:48;11.40;;;5.82;;
50605;SDS011;36557;53.572;10.170;2023-03-01T00:24:14;15.00;;;5.63;;
50605;SDS011;36557;53.572;10.170;2023-03-01T00:26:40;14.02;;;6.93;;
50605;SDS011;36557;53.572;10.170;2023-03-01T00:29:06;10.15;;;6.32;;
50605;SDS011;36557;53.572;10.170;2023-03-01T00:31:32;10.02;;;5.70;;
50605;SDS011;36557;53.572;10.170;2023-03-01T00:33:59;13.48;;;6.47;;
50605;SDS011;36557;53.572;10.170;2023-03-01T00:36:29;11.02;;;5.93;;
50605;SDS011;36557;53.572;10.170;2023-03-01T00:38:57;11.07;;;6.00;;
50605;SDS011;36557;53.572;10.170;2023-03-01T00:41:23;11.73;;;5.72;;
50605;SDS011;36557;53.572;10.170;2023-03-01T00:43:51;12.07;;;5.72;;
50605;SDS011;36557;53.572;10.170;2023-03-01T00:46:19;10.70;;;5.57;;
50605;SDS011;36557;53.572;10.170;2023-03-01T00:48:46;11.20;;;5.80;;
50605;SDS011;36557;53.572;10.170;2023-03-01T00:51:16;11.27;;;5.57;;
50605;SDS011;36557;53.572;10.170;2023-03-01T00:53:44;12.35;;;5.75;;
50605;SDS011;36557;53.572;10.170;2023-03-01T00:56:10;11.02;;;5.40;;
50605;SDS011;36557;53.572;10.170;2023-03-01T00:58:37;13.18;;;6.03;;
50605;SDS011;36557;53.572;10.170;2023-03-01T01:01:16;12.27;;;6.10;;
50605;SDS011;36557;53.572;10.170;2023-03-01T01:03:49;11.55;;;5.95;;
50605;SDS011;36557;53.572;10.170;2023-03-01T01:06:36;11.65;;;5.93;;
50605;SDS011;36557;53.572;10.170;2023-03-01T01:09:05;11.70;;;5.80;;
50605;SDS011;36557;53.572;10.170;2023-03-01T01:11:32;10.48;;;5.88;;
50605;SDS011;36557;53.572;10.170;2023-03-01T01:14:00;10.88;;;5.63;;
50605;SDS011;36557;53.572;10.170;2023-03-01T01:16:26;9.52;;;5.25;;
50605;SDS011;36557;53.572;10.170;2023-03-01T01:18:52;15.88;;;6.60;;
50605;SDS011;36557;53.572;10.170;2023-03-01T01:21:20;11.80;;;5.95;;
50605;SDS011;36557;53.572;10.170;2023-03-01T01:23:47;12.57;;;6.07;;
50605;SDS011;36557;53.572;10.170;2023-03-01T01:26:25;13.00;;;5.97;;
50605;SDS011;36557;53.572;10.170;2023-03-01T01:28:53;16.45;;;6.30;;
50605;SDS011;36557;53.572;10.170;2023-03-01T01:31:19;10.82;;;5.82;;
50605;SDS011;36557;53.572;10.170;2023-03-01T01:33:48;10.55;;;5.72;;
50605;SDS011;36557;53.572;10.170;2023-03-01T01:36:14;14.38;;;5.78;;
50605;SDS011;36557;53.572;10.170;2023-03-01T01:38:41;11.05;;;6.10;;
50605;SDS011;36557;53.572;10.170;2023-03-01T01:41:07;13.50;;;5.95;;
50605;SDS011;36557;53.572;10.170;2023-03-01T01:43:40;12.82;;;5.72;;
50605;SDS011;36557;53.572;10.170;2023-03-01T01:49:05;12.10;;;5.93;;
50605;SDS011;36557;53.572;10.170;2023-03-01T01:51:40;10.85;;;6.18;;
50605;SDS011;36557;53.572;10.170;2023-03-01T01:54:12;11.90;;;6.68;;
50605;SDS011;36557;53.572;10.170;2023-03-01T01:59:13;12.20;;;7.30;;
50605;SDS011;36557;53.572;10.170;2023-03-01T02:01:39;12.45;;;7.13;;
50605;SDS011;36557;53.572;10.170;2023-03-01T02:04:05;12.70;;;6.95;;
50605;SDS011;36557;53.572;10.170;2023-03-01T02:06:33;15.70;;;7.50;;
50605;SDS011;36557;53.572;10.170;2023-03-01T02:09:16;15.00;;;6.82;;
50605;SDS011;36557;53.572;10.170;2023-03-01T02:11:45;13.05;;;7.20;;
50605;SDS011;36557;53.572;10.170;2023-03-01T02:14:12;13.43;;;9.10;;
50605;SDS011;36557;53.572;10.170;2023-03-01T02:16:40;14.02;;;7.65;;
50605;SDS011;36557;53.572;10.170;2023-03-01T02:19:06;15.35;;;6.25;;
50605;SDS011;36557;53.572;10.170;2023-03-01T02:21:43;12.43;;;6.93;;
50605;SDS011;36557;53.572;10.170;2023-03-01T02:27:29;11.48;;;6.68;;
50605;SDS011;36557;53.572;10.170;2023-03-01T02:30:09;12.15;;;6.65;;
50605;SDS011;36557;53.572;10.170;2023-03-01T02:32:37;13.02;;;6.45;;
50605;SDS011;36557;53.572;10.170;2023-03-01T02:35:07;12.32;;;6.55;;
50605;SDS011;36557;53.572;10.170;2023-03-01T02:37:35;13.13;;;7.05;;
50605;SDS011;36557;53.572;10.170;2023-03-01T02:40:02;12.38;;;6.55;;
50605;SDS011;36557;53.572;10.170;2023-03-01T02:42:33;13.25;;;6.80;;
50605;SDS011;36557;53.572;10.170;2023-03-01T02:45:05;13.88;;;7.10;;
50605;SDS011;36557;53.572;10.170;2023-03-01T02:47:31;12.38;;;6.72;;
50605;SDS011;36557;53.572;10.170;2023-03-01T02:49:57;11.75;;;6.85;;
50605;SDS011;36557;53.572;10.170;2023-03-01T02:57:38;14.23;;;7.05;;
50605;SDS011;36557;53.572;10.170;2023-03-01T03:00:10;14.88;;;7.50;;
50605;SDS011;36557;53.572;10.170;2023-03-01T03:02:44;13.63;;;6.60;;
50605;SDS011;36557;53.572;10.170;2023-03-01T03:05:12;12.98;;;6.97;;
50605;SDS011;36557;53.572;10.170;2023-03-01T03:07:48;13.35;;;6.53;;
50605;SDS011;36557;53.572;10.170;2023-03-01T03:10:19;12.40;;;6.88;;
50605;SDS011;36557;53.572;10.170;2023-03-01T03:12:51;11.63;;;6.47;;
50605;SDS011;36557;53.572;10.170;2023-03-01T03:15:37;13.98;;;6.38;;
50605;SDS011;36557;53.572;10.170;2023-03-01T03:18:06;13.25;;;7.15;;
50605;SDS011;36557;53.572;10.170;2023-03-01T03:20:33;19.52;;;7.60;;
50605;SDS011;36557;53.572;10.170;2023-03-01T03:23:00;14.57;;;7.03;;
50605;SDS011;36557;53.572;10.170;2023-03-01T03:25:27;13.40;;;6.70;;
50605;SDS011;36557;53.572;10.170;2023-03-01T03:27:53;14.25;;;6.50;;
50605;SDS011;36557;53.572;10.170;2023-03-01T03:30:21;11.00;;;6.25;;
50605;SDS011;36557;53.572;10.170;2023-03-01T03:32:48;12.52;;;6.47;;
50605;SDS011;36557;53.572;10.170;2023-03-01T03:37:45;13.07;;;6.32;;
50605;SDS011;36557;53.572;10.170;2023-03-01T03:40:31;14.43;;;6.53;;
50605;SDS011;36557;53.572;10.170;2023-03-01T03:42:57;12.77;;;7.05;;
50605;SDS011;36557;53.572;10.170;2023-03-01T03:45:23;12.82;;;6.25;;
50605;SDS011;36557;53.572;10.170;2023-03-01T03:47:49;14.13;;;7.13;;
50605;SDS011;36557;53.572;10.170;2023-03-01T03:50:16;13.15;;;7.43;;
50605;SDS011;36557;53.572;10.170;2023-03-01T03:52:42;15.35;;;6.53;;
50605;SDS011;36557;53.572;10.170;2023-03-01T03:55:09;14.95;;;6.93;;
50605;SDS011;36557;53.572;10.170;2023-03-01T03:57:39;12.18;;;6.53;;
50605;SDS011;36557;53.572;10.170;2023-03-01T04:00:06;10.55;;;6.82;;
50605;SDS011;36557;53.572;10.170;2023-03-01T04:02:42;13.43;;;6.82;;
50605;SDS011;36557;53.572;10.170;2023-03-01T04:05:09;12.57;;;6.78;;
50605;SDS011;36557;53.572;10.170;2023-03-01T04:07:36;14.55;;;7.07;;
50605;SDS011;36557;53.572;10.170;2023-03-01T04:10:03;10.75;;;6.45;;
50605;SDS011;36557;53.572;10.170;2023-03-01T04:12:29;11.55;;;6.28;;
50605;SDS011;36557;53.572;10.170;2023-03-01T04:14:55;14.93;;;7.28;;
50605;SDS011;36557;53.572;10.170;2023-03-01T04:17:22;11.77;;;6.03;;
50605;SDS011;36557;53.572;10.170;2023-03-01T04:19:48;10.13;;;5.97;;
50605;SDS011;36557;53.572;10.170;2023-03-01T04:22:14;11.40;;;6.43;;
50605;SDS011;36557;53.572;10.170;2023-03-01T04:24:43;10.82;;;6.28;;
50605;SDS011;36557;53.572;10.170;2023-03-01T04:27:09;9.88;;;5.80;;
50605;SDS011;36557;53.572;10.170;2023-03-01T04:29:35;12.77;;;6.47;;
50605;SDS011;36557;53.572;10.170;2023-03-01T04:32:01;17.13;;;6.95;;
50605;SDS011;36557;53.572;10.170;2023-03-01T04:34:28;11.00;;;6.30;;
50605;SDS011;36557;53.572;10.170;2023-03-01T04:36:54;10.00;;;6.10;;
50605;SDS011;36557;53.572;10.170;2023-03-01T04:39:20;11.02;;;6.70;;
50605;SDS011;36557;53.572;10.170;2023-03-01T04:41:47;13.35;;;6.18;;
50605;SDS011;36557;53.572;10.170;2023-03-01T04:44:13;11.93;;;6.45;;
50605;SDS011;36557;53.572;10.170;2023-03-01T04:46:39;15.18;;;6.43;;
50605;SDS011;36557;53.572;10.170;2023-03-01T04:49:05;11.95;;;6.30;;
50605;SDS011;36557;53.572;10.170;2023-03-01T04:51:31;11.18;;;5.80;;
50605;SDS011;36557;53.572;10.170;2023-03-01T04:53:57;11.80;;;6.47;;
50605;SDS011;36557;53.572;10.170;2023-03-01T04:56:25;9.50;;;5.72;;
50605;SDS011;36557;53.572;10.170;2023-03-01T04:58:53;11.25;;;5.75;;
50605;SDS011;36557;53.572;10.170;2023-03-01T05:01:19;12.45;;;6.70;;
50605;SDS011;36557;53.572;10.170;2023-03-01T05:03:46;13.25;;;6.50;;
50605;SDS011;36557;53.572;10.170;2023-03-01T05:06:13;14.43;;;6.15;;
50605;SDS011;36557;53.572;10.170;2023-03-01T05:08:39;12.15;;;6.22;;
50605;SDS011;36557;53.572;10.170;2023-03-01T05:11:07;14.10;;;6.78;;
50605;SDS011;36557;53.572;10.170;2023-03-01T05:13:34;13.07;;;7.28;;
50605;SDS011;36557;53.572;10.170;2023-03-01T05:16:01;13.73;;;6.90;;
50605;SDS011;36557;53.572;10.170;2023-03-01T05:18:29;11.35;;;6.35;;
50605;SDS011;36557;53.572;10.170;2023-03-01T05:21:00;11.40;;;6.80;;
50605;SDS011;36557;53.572;10.170;2023-03-01T05:23:29;9.40;;;5.63;;
50605;SDS011;36557;53.572;10.170;2023-03-01T05:25:57;13.25;;;6.43;;
50605;SDS011;36557;53.572;10.170;2023-03-01T05:28:24;10.38;;;6.68;;
50605;SDS011;36557;53.572;10.170;2023-03-01T05:30:50;13.73;;;5.82;;
50605;SDS011;36557;53.572;10.170;2023-03-01T05:33:17;11.13;;;6.40;;
50605;SDS011;36557;53.572;10.170;2023-03-01T05:35:44;13.15;;;6.40;;
50605;SDS011;36557;53.572;10.170;2023-03-01T05:38:12;13.85;;;6.47;;
50605;SDS011;36557;53.572;10.170;2023-03-01T05:40:39;11.35;;;6.63;;
50605;SDS011;36557;53.572;10.170;2023-03-01T05:43:05;11.77;;;6.20;;
50605;SDS011;36557;53.572;10.170;2023-03-01T05:45:31;11.55;;;6.50;;
50605;SDS011;36557;53.572;10.170;2023-03-01T05:47:57;12.10;;;6.78;;
50605;SDS011;36557;53.572;10.170;2023-03-01T05:50:28;11.70;;;6.45;;
50605;SDS011;36557;53.572;10.170;2023-03-01T05:53:01;11.45;;;5.90;;
50605;SDS011;36557;53.572;10.170;2023-03-01T05:55:28;11.98;;;6.55;;
50605;SDS011;36557;53.572;10.170;2023-03-01T05:57:55;11.98;;;6.70;;
50605;SDS011;36557;53.572;10.170;2023-03-01T06:00:21;12.20;;;6.40;;
50605;SDS011;36557;53.572;10.170;2023-03-01T06:02:47;12.95;;;6.72;;
50605;SDS011;36557;53.572;10.170;2023-03-01T06:05:14;14.43;;;6.82;;
50605;SDS011;36557;53.572;10.170;2023-03-01T06:07:40;13.10;;;6.47;;
50605;SDS011;36557;53.572;10.170;2023-03-01T06:10:07;14.38;;;6.45;;
50605;SDS011;36557;53.572;10.170;2023-03-01T06:12:34;14.73;;;8.23;;
50605;SDS011;36557;53.572;10.170;2023-03-01T06:15:01;12.43;;;6.93;;
50605;SDS011;36557;53.572;10.170;2023-03-01T06:17:31;14.25;;;7.20;;
50605;SDS011;36557;53.572;10.170;2023-03-01T06:19:58;13.55;;;6.45;;
50605;SDS011;36557;53.572;10.170;2023-03-01T06:22:24;14.40;;;7.80;;
50605;SDS011;36557;53.572;10.170;2023-03-01T06:24:49;15.18;;;8.93;;
50605;SDS011;36557;53.572;10.170;2023-03-01T06:27:15;13.27;;;7.47;;
50605;SDS011;36557;53.572;10.170;2023-03-01T06:29:41;13.25;;;6.50;;
50605;SDS011;36557;53.572;10.170;2023-03-01T06:32:07;12.45;;;6.72;;
50605;SDS011;36557;53.572;10.170;2023-03-01T06:34:33;12.13;;;6.75;;
50605;SDS011;36557;53.572;10.170;2023-03-01T06:36:59;12.75;;;6.63;;
50605;SDS011;36557;53.572;10.170;2023-03-01T06:39:24;13.05;;;6.78;;
50605;SDS011;36557;53.572;10.170;2023-03-01T06:41:52;11.50;;;7.25;;
50605;SDS011;36557;53.572;10.170;2023-03-01T06:44:18;14.27;;;7.18;;
50605;SDS011;36557;53.572;10.170;2023-03-01T06:46:44;10.95;;;6.38;;
50605;SDS011;36557;53.572;10.170;2023-03-01T06:49:10;14.27;;;7.78;;
50605;SDS011;36557;53.572;10.170;2023-03-01T06:51:37;14.48;;;7.20;;
50605;SDS011;36557;53.572;10.170;2023-03-01T06:54:03;13.85;;;6.47;;
50605;SDS011;36557;53.572;10.170;2023-03-01T06:56:31;14.15;;;6.85;;
50605;SDS011;36557;53.572;10.170;2023-03-01T06:58:57;12.60;;;6.85;;
50605;SDS011;36557;53.572;10.170;2023-03-01T07:01:23;13.52;;;7.22;;
50605;SDS011;36557;53.572;10.170;2023-03-01T07:03:49;13.57;;;7.15;;
50605;SDS011;36557;53.572;10.170;2023-03-01T07:06:14;12.98;;;7.15;;
50605;SDS011;36557;53.572;10.170;2023-03-01T07:08:40;13.02;;;7.10;;
50605;SDS011;36557;53.572;10.170;2023-03-01T07:11:06;15.02;;;6.82;;
50605;SDS011;36557;53.572;10.170;2023-03-01T07:13:32;13.90;;;6.53;;
50605;SDS011;36557;53.572;10.170;2023-03-01T07:15:57;17.58;;;7.65;;
50605;SDS011;36557;53.572;10.170;2023-03-01T07:18:23;13.05;;;7.15;;
50605;SDS011;36557;53.572;10.170;2023-03-01T07:20:49;14.02;;;6.38;;
50605;SDS011;36557;53.572;10.170;2023-03-01T07:23:14;14.75;;;6.50;;
50605;SDS011;36557;53.572;10.170;2023-03-01T07:25:40;11.70;;;6.30;;
50605;SDS011;36557;53.572;10.170;2023-03-01T07:28:06;14.52;;;6.35;;
50605;SDS011;36557;53.572;10.170;2023-03-01T07:30:32;11.38;;;6.43;;
50605;SDS011;36557;53.572;10.170;2023-03-01T07:32:58;14.02;;;6.57;;
50605;SDS011;36557;53.572;10.170;2023-03-01T07:35:27;15.85;;;7.13;;
50605;SDS011;36557;53.572;10.170;2023-03-01T07:37:53;13.90;;;7.03;;
50605;SDS011;36557;53.572;10.170;2023-03-01T07:40:19;14.18;;;7.53;;
50605;SDS011;36557;53.572;10.170;2023-03-01T07:42:45;18.65;;;7.65;;
50605;SDS011;36557;53.572;10.170;2023-03-01T07:45:11;15.77;;;7.10;;
50605;SDS011;36557;53.572;10.170;2023-03-01T07:47:38;12.20;;;6.47;;
50605;SDS011;36557;53.572;10.170;2023-03-01T07:50:04;11.77;;;6.32;;
50605;SDS011;36557;53.572;10.170;2023-03-01T07:52:30;12.13;;;7.32;;
50605;SDS011;36557;53.572;10.170;2023-03-01T07:54:57;13.60;;;7.47;;
50605;SDS011;36557;53.572;10.170;2023-03-01T07:57:23;15.23;;;7.78;;
50605;SDS011;36557;53.572;10.170;2023-03-01T07:59:48;14.27;;;6.95;;
50605;SDS011;36557;53.572;10.170;2023-03-01T08:02:14;14.23;;;7.68;;
50605;SDS011;36557;53.572;10.170;2023-03-01T08:04:40;13.15;;;7.15;;
50605;SDS011;36557;53.572;10.170;2023-03-01T08:07:07;13.85;;;7.43;;
50605;SDS011;36557;53.572;10.170;2023-03-01T08:09:36;16.23;;;7.60;;
50605;SDS011;36557;53.572;10.170;2023-03-01T08:12:02;14.68;;;7.50;;
50605;SDS011;36557;53.572;10.170;2023-03-01T08:14:29;15.02;;;9.35;;
50605;SDS011;36557;53.572;10.170;2023-03-01T08:16:56;12.60;;;7.40;;
50605;SDS011;36557;53.572;10.170;2023-03-01T08:19:21;12.65;;;7.40;;
50605;SDS011;36557;53.572;10.170;2023-03-01T08:21:47;17.00;;;8.38;;
50605;SDS011;36557;53.572;10.170;2023-03-01T08:24:13;16.42;;;7.40;;
50605;SDS011;36557;53.572;10.170;2023-03-01T08:26:39;16.90;;;8.43;;
50605;SDS011;36557;53.572;10.170;2023-03-01T08:29:04;13.50;;;8.32;;
50605;SDS011;36557;53.572;10.170;2023-03-01T08:31:34;15.77;;;8.13;;
50605;SDS011;36557;53.572;10.170;2023-03-01T08:34:03;17.45;;;9.50;;
50605;SDS011;36557;53.572;10.170;2023-03-01T08:36:32;16.52;;;7.95;;
50605;SDS011;36557;53.572;10.170;2023-03-01T08:39:02;16.10;;;7.90;;
50605;SDS011;36557;53.572;10.170;2023-03-01T08:41:28;15.40;;;7.40;;
50605;SDS011;36557;53.572;10.170;2023-03-01T08:43:54;17.98;;;8.32;;
50605;SDS011;36557;53.572;10.170;2023-03-01T08:46:24;13.93;;;7.85;;
50605;SDS011;36557;53.572;10.170;2023-03-01T08:48:54;12.95;;;7.53;;
50605;SDS011;36557;53.572;10.170;2023-03-01T08:51:20;14.02;;;8.23;;
50605;SDS011;36557;53.572;10.170;2023-03-01T08:53:47;16.08;;;8.27;;
50605;SDS011;36557;53.572;10.170;2023-03-01T08:56:13;14.80;;;7.88;;
50605;SDS011;36557;53.572;10.170;2023-03-01T08:58:39;15.30;;;8.35;;
50605;SDS011;36557;53.572;10.170;2023-03-01T09:01:08;18.45;;;8.93;;
50605;SDS011;36557;53.572;10.170;2023-03-01T09:03:35;16.20;;;8.68;;
50605;SDS011;36557;53.572;10.170;2023-03-01T09:06:02;12.52;;;7.65;;
50605;SDS011;36557;53.572;10.170;2023-03-01T09:08:29;13.45;;;7.95;;
50605;SDS011;36557;53.572;10.170;2023-03-01T09:11:00;14.60;;;8.40;;
50605;SDS011;36557;53.572;10.170;2023-03-01T09:13:28;13.88;;;8.70;;
50605;SDS011;36557;53.572;10.170;2023-03-01T09:15:56;15.60;;;8.30;;
50605;SDS011;36557;53.572;10.170;2023-03-01T09:18:29;13.90;;;8.32;;
50605;SDS011;36557;53.572;10.170;2023-03-01T09:21:01;14.10;;;8.73;;
50605;SDS011;36557;53.572;10.170;2023-03-01T09:23:32;16.55;;;8.43;;
50605;SDS011;36557;53.572;10.170;2023-03-01T09:26:02;14.20;;;8.85;;
50605;SDS011;36557;53.572;10.170;2023-03-01T09:28:28;13.95;;;8.05;;
50605;SDS011;36557;53.572;10.170;2023-03-01T09:30:53;14.60;;;8.40;;
50605;SDS011;36557;53.572;10.170;2023-03-01T09:33:23;13.15;;;8.55;;
50605;SDS011;36557;53.572;10.170;2023-03-01T09:35:49;13.45;;;7.85;;
50605;SDS011;36557;53.572;10.170;2023-03-01T09:38:15;15.07;;;7.78;;
50605;SDS011;36557;53.572;10.170;2023-03-01T09:40:43;16.90;;;8.13;;
50605;SDS011;36557;53.572;10.170;2023-03-01T09:45:59;14.57;;;8.27;;
50605;SDS011;36557;53.572;10.170;2023-03-01T09:48:32;14.70;;;8.32;;
50605;SDS011;36557;53.572;10.170;2023-03-01T09:53:33;13.32;;;7.28;;
50605;SDS011;36557;53.572;10.170;2023-03-01T10:06:46;13.38;;;7.70;;
50605;SDS011;36557;53.572;10.170;2023-03-01T10:09:23;15.93;;;7.63;;
50605;SDS011;36557;53.572;10.170;2023-03-01T10:11:50;14.25;;;8.45;;
50605;SDS011;36557;53.572;10.170;2023-03-01T10:14:30;13.02;;;8.25;;
50605;SDS011;36557;53.572;10.170;2023-03-01T10:17:04;11.55;;;7.90;;
50605;SDS011;36557;53.572;10.170;2023-03-01T10:19:39;11.20;;;7.93;;
50605;SDS011;36557;53.572;10.170;2023-03-01T10:22:26;13.02;;;7.70;;
50605;SDS011;36557;53.572;10.170;2023-03-01T10:24:54;15.23;;;8.52;;
50605;SDS011;36557;53.572;10.170;2023-03-01T10:27:26;12.10;;;7.45;;
50605;SDS011;36557;53.572;10.170;2023-03-01T10:32:54;12.05;;;6.95;;
50605;SDS011;36557;53.572;10.170;2023-03-01T10:35:23;12.77;;;7.90;;
50605;SDS011;36557;53.572;10.170;2023-03-01T10:38:11;14.35;;;7.90;;
50605;SDS011;36557;53.572;10.170;2023-03-01T10:40:54;13.20;;;7.75;;
50605;SDS011;36557;53.572;10.170;2023-03-01T10:43:22;11.55;;;7.50;;
50605;SDS011;36557;53.572;10.170;2023-03-01T10:45:50;11.30;;;7.43;;
50605;SDS011;36557;53.572;10.170;2023-03-01T10:48:23;12.40;;;7.35;;
50605;SDS011;36557;53.572;10.170;2023-03-01T10:51:14;15.00;;;7.20;;
50605;SDS011;36557;53.572;10.170;2023-03-01T10:53:42;11.35;;;6.82;;
50605;SDS011;36557;53.572;10.170;2023-03-01T10:56:14;10.80;;;6.82;;
50605;SDS011;36557;53.572;10.170;2023-03-01T10:59:26;15.13;;;7.95;;
50605;SDS011;36557;53.572;10.170;2023-03-01T11:01:29;12.02;;;7.38;;
50605;SDS011;36557;53.572;10.170;2023-03-01T11:06:32;10.88;;;7.10;;
50605;SDS011;36557;53.572;10.170;2023-03-01T11:09:15;12.70;;;6.85;;
50605;SDS011;36557;53.572;10.170;2023-03-01T11:11:45;9.68;;;6.47;;
50605;SDS011;36557;53.572;10.170;2023-03-01T11:14:17;11.20;;;6.13;;
50605;SDS011;36557;53.572;10.170;2023-03-01T11:22:56;12.25;;;6.40;;
50605;SDS011;36557;53.572;10.170;2023-03-01T11:25:27;11.38;;;7.32;;
50605;SDS011;36557;53.572;10.170;2023-03-01T11:27:57;17.15;;;7.38;;
50605;SDS011;36557;53.572;10.170;2023-03-01T11:30:31;11.45;;;7.03;;
50605;SDS011;36557;53.572;10.170;2023-03-01T11:35:34;9.50;;;6.72;;
50605;SDS011;36557;53.572;10.170;2023-03-01T11:38:21;9.75;;;6.13;;
50605;SDS011;36557;53.572;10.170;2023-03-01T11:43:32;9.25;;;6.15;;
50605;SDS011;36557;53.572;10.170;2023-03-01T11:51:41;8.98;;;5.88;;
50605;SDS011;36557;53.572;10.170;2023-03-01T12:00:15;7.43;;;5.40;;
50605;SDS011;36557;53.572;10.170;2023-03-01T12:22:17;9.75;;;6.70;;
50605;SDS011;36557;53.572;10.170;2023-03-01T12:42:05;8.82;;;6.22;;
50605;SDS011;36557;53.572;10.170;2023-03-01T12:45:00;11.05;;;5.97;;
50605;SDS011;36557;53.572;10.170;2023-03-01T12:48:33;9.20;;;5.57;;
50605;SDS011;36557;53.572;10.170;2023-03-01T12:50:44;7.73;;;4.57;;
50605;SDS011;36557;53.572;10.170;2023-03-01T12:56:14;6.15;;;4.28;;
50605;SDS011;36557;53.572;10.170;2023-03-01T13:01:48;4.88;;;3.58;;
50605;SDS011;36557;53.572;10.170;2023-03-01T13:04:24;6.00;;;3.47;;
50605;SDS011;36557;53.572;10.170;2023-03-01T13:07:30;5.13;;;4.13;;
50605;SDS011;36557;53.572;10.170;2023-03-01T13:12:53;6.32;;;4.03;;
50605;SDS011;36557;53.572;10.170;2023-03-01T13:15:29;5.05;;;3.88;;
50605;SDS011;36557;53.572;10.170;2023-03-01T13:17:58;6.95;;;3.63;;
50605;SDS011;36557;53.572;10.170;2023-03-01T13:20:30;5.28;;;3.65;;
50605;SDS011;36557;53.572;10.170;2023-03-01T13:23:11;5.13;;;3.72;;
50605;SDS011;36557;53.572;10.170;2023-03-01T13:33:49;4.40;;;2.72;;
50605;SDS011;36557;53.572;10.170;2023-03-01T13:38:57;5.25;;;3.10;;
50605;SDS011;36557;53.572;10.170;2023-03-01T13:44:12;4.93;;;2.88;;
50605;SDS011;36557;53.572;10.170;2023-03-01T13:46:38;5.60;;;3.20;;
50605;SDS011;36557;53.572;10.170;2023-03-01T13:49:04;4.85;;;2.67;;
50605;SDS011;36557;53.572;10.170;2023-03-01T13:51:36;6.07;;;3.33;;
50605;SDS011;36557;53.572;10.170;2023-03-01T13:54:02;6.53;;;3.55;;
50605;SDS011;36557;53.572;10.170;2023-03-01T13:56:28;5.60;;;3.25;;
50605;SDS011;36557;53.572;10.170;2023-03-01T13:59:02;5.88;;;3.50;;
50605;SDS011;36557;53.572;10.170;2023-03-01T14:01:34;5.65;;;3.78;;
50605;SDS011;36557;53.572;10.170;2023-03-01T14:04:01;5.88;;;3.97;;
50605;SDS011;36557;53.572;10.170;2023-03-01T14:06:32;6.57;;;3.40;;
50605;SDS011;36557;53.572;10.170;2023-03-01T14:09:05;5.95;;;3.60;;
50605;SDS011;36557;53.572;10.170;2023-03-01T14:14:42;3.72;;;2.38;;
50605;SDS011;36557;53.572;10.170;2023-03-01T14:17:24;3.50;;;2.40;;
50605;SDS011;36557;53.572;10.170;2023-03-01T14:20:14;3.33;;;2.50;;
50605;SDS011;36557;53.572;10.170;2023-03-01T14:22:49;4.95;;;2.45;;
50605;SDS011;36557;53.572;10.170;2023-03-01T14:25:31;5.65;;;2.80;;
50605;SDS011;36557;53.572;10.170;2023-03-01T14:28:03;3.78;;;2.65;;
50605;SDS011;36557;53.572;10.170;2023-03-01T14:30:41;3.60;;;2.40;;
50605;SDS011;36557;53.572;10.170;2023-03-01T14:33:22;6.60;;;2.30;;
50605;SDS011;36557;53.572;10.170;2023-03-01T14:36:05;5.10;;;2.50;;
50605;SDS011;36557;53.572;10.170;2023-03-01T14:38:37;6.00;;;3.50;;
50605;SDS011;36557;53.572;10.170;2023-03-01T14:41:05;7.38;;;3.75;;
50605;SDS011;36557;53.572;10.170;2023-03-01T14:43:37;6.00;;;3.90;;
50605;SDS011;36557;53.572;10.170;2023-03-01T14:46:05;5.28;;;3.70;;
50605;SDS011;36557;53.572;10.170;2023-03-01T14:48:30;5.68;;;3.63;;
50605;SDS011;36557;53.572;10.170;2023-03-01T14:50:57;5.43;;;3.95;;
50605;SDS011;36557;53.572;10.170;2023-03-01T14:53:24;6.95;;;4.40;;
50605;SDS011;36557;53.572;10.170;2023-03-01T14:55:53;6.20;;;4.15;;
50605;SDS011;36557;53.572;10.170;2023-03-01T14:58:22;5.90;;;3.70;;
50605;SDS011;36557;53.572;10.170;2023-03-01T15:00:51;6.30;;;3.70;;
50605;SDS011;36557;53.572;10.170;2023-03-01T15:03:38;8.05;;;4.07;;
50605;SDS011;36557;53.572;10.170;2023-03-01T15:06:09;6.00;;;3.72;;
50605;SDS011;36557;53.572;10.170;2023-03-01T15:08:37;5.10;;;3.70;;
50605;SDS011;36557;53.572;10.170;2023-03-01T15:13:41;6.38;;;3.20;;
50605;SDS011;36557;53.572;10.170;2023-03-01T15:16:17;4.70;;;3.10;;
50605;SDS011;36557;53.572;10.170;2023-03-01T15:18:54;4.70;;;3.33;;
50605;SDS011;36557;53.572;10.170;2023-03-01T15:21:37;5.85;;;3.50;;
50605;SDS011;36557;53.572;10.170;2023-03-01T15:26:43;6.68;;;3.47;;
50605;SDS011;36557;53.572;10.170;2023-03-01T15:29:19;5.07;;;3.45;;
50605;SDS011;36557;53.572;10.170;2023-03-01T15:32:32;6.13;;;3.50;;
50605;SDS011;36557;53.572;10.170;2023-03-01T15:34:47;6.50;;;3.85;;
50605;SDS011;36557;53.572;10.170;2023-03-01T15:40:26;6.72;;;3.97;;
50605;SDS011;36557;53.572;10.170;2023-03-01T15:42:57;6.60;;;4.38;;
50605;SDS011;36557;53.572;10.170;2023-03-01T15:45:25;5.80;;;4.07;;
50605;SDS011;36557;53.572;10.170;2023-03-01T15:50:27;6.03;;;3.90;;
50605;SDS011;36557;53.572;10.170;2023-03-01T15:52:54;6.60;;;4.03;;
50605;SDS011;36557;53.572;10.170;2023-03-01T15:57:48;7.18;;;4.65;;
50605;SDS011;36557;53.572;10.170;2023-03-01T16:00:16;8.98;;;4.57;;
50605;SDS011;36557;53.572;10.170;2023-03-01T16:02:43;6.20;;;4.20;;
50605;SDS011;36557;53.572;10.170;2023-03-01T16:05:19;6.07;;;4.47;;
50605;SDS011;36557;53.572;10.170;2023-03-01T16:07:51;7.47;;;4.07;;
50605;SDS011;36557;53.572;10.170;2023-03-01T16:10:17;8.88;;;4.28;;
50605;SDS011;36557;53.572;10.170;2023-03-01T16:12:43;6.22;;;4.15;;
50605;SDS011;36557;53.572;10.170;2023-03-01T16:15:17;7.13;;;4.20;;
50605;SDS011;36557;53.572;10.170;2023-03-01T16:17:44;6.50;;;3.63;;
50605;SDS011;36557;53.572;10.170;2023-03-01T16:20:11;7.78;;;4.25;;
50605;SDS011;36557;53.572;10.170;2023-03-01T16:22:37;7.38;;;4.22;;
50605;SDS011;36557;53.572;10.170;2023-03-01T16:25:04;5.50;;;3.38;;
50605;SDS011;36557;53.572;10.170;2023-03-01T16:27:30;5.82;;;3.25;;
50605;SDS011;36557;53.572;10.170;2023-03-01T16:29:56;5.32;;;3.72;;
50605;SDS011;36557;53.572;10.170;2023-03-01T16:32:22;6.57;;;3.50;;
50605;SDS011;36557;53.572;10.170;2023-03-01T16:34:47;7.28;;;3.50;;
50605;SDS011;36557;53.572;10.170;2023-03-01T16:37:14;4.50;;;3.15;;
50605;SDS011;36557;53.572;10.170;2023-03-01T16:39:40;5.22;;;2.80;;
50605;SDS011;36557;53.572;10.170;2023-03-01T16:42:06;4.50;;;3.15;;
50605;SDS011;36557;53.572;10.170;2023-03-01T16:44:32;6.63;;;3.50;;
50605;SDS011;36557;53.572;10.170;2023-03-01T16:46:58;5.95;;;3.80;;
50605;SDS011;36557;53.572;10.170;2023-03-01T16:49:24;8.00;;;4.80;;
50605;SDS011;36557;53.572;10.170;2023-03-01T16:51:49;8.57;;;5.55;;
50605;SDS011;36557;53.572;10.170;2023-03-01T16:54:15;8.82;;;5.45;;
50605;SDS011;36557;53.572;10.170;2023-03-01T16:56:40;9.38;;;5.25;;